Terminal Aerodrome Forecast
Issued by NWS

Home | Current Version | Previous Version | Text Only | Print | Product List | Glossary On
Versions: 1 2 3 4 5 6 7 8 9 10 11 12 13 14
000
FTUS42 KTAE 261100
TAFVLD
TAF
KVLD 261139Z 2612/2712 20003KT 5SM BR FEW060
     FM261300 26007KT P6SM SCT050
      TEMPO 2613/2615 3SM SHRA BKN035
     FM261500 23009KT P6SM VCTS SCT050CB
     FM270000 00000KT P6SM SKC=

USA.gov is the U.S. government's official web portal to all federal, state and local government web resources and services.